Metar z połowy godziny Komunikat METAR ze strony awiacja.imgw.pl Metar G30 EPRZ METAR EPRZ 200330Z 26010KT 9999 FEW020 03/02 Q1016 =